createdAt,value
2019-01-13T00:00:43.231Z,83.10
2019-01-13T00:03:11.520Z,83.40
2019-01-13T00:05:39.701Z,83.10
2019-01-13T00:08:08.043Z,83.10
2019-01-13T00:10:36.126Z,82.90
2019-01-13T00:13:04.854Z,83.00
2019-01-13T00:15:32.929Z,83.40
2019-01-13T00:18:01.162Z,84.20
2019-01-13T00:20:29.345Z,83.30
2019-01-13T00:22:57.485Z,83.40
2019-01-13T00:25:25.573Z,83.30
2019-01-13T00:27:53.906Z,83.40
2019-01-13T00:30:22.287Z,83.40
2019-01-13T00:32:50.400Z,83.20
2019-01-13T00:35:18.590Z,83.20
2019-01-13T00:37:47.228Z,82.90
2019-01-13T00:40:15.597Z,82.90
2019-01-13T00:42:43.968Z,82.90
2019-01-13T00:45:12.327Z,82.80
2019-01-13T00:47:40.409Z,82.70
2019-01-13T00:50:11.034Z,82.60
2019-01-13T00:52:39.233Z,82.60
2019-01-13T00:55:08.001Z,82.90
2019-01-13T00:57:36.759Z,82.90
2019-01-13T01:00:08.931Z,83.50
2019-01-13T01:02:37.114Z,82.70
2019-01-13T01:05:06.839Z,82.70
2019-01-13T01:07:35.147Z,82.60
2019-01-13T01:10:04.809Z,82.70
2019-01-13T01:12:32.907Z,82.50
2019-01-13T01:15:01.165Z,82.60
2019-01-13T01:17:29.231Z,82.20
2019-01-13T01:19:57.461Z,82.10
2019-01-13T01:22:25.530Z,82.00
2019-01-13T01:24:53.686Z,82.10
2019-01-13T01:27:21.894Z,82.00
2019-01-13T01:29:50.013Z,82.30
2019-01-13T01:32:18.617Z,82.30
2019-01-13T01:34:46.902Z,82.30
2019-01-13T01:37:14.966Z,82.50
2019-01-13T01:39:43.098Z,82.60
2019-01-13T01:42:11.637Z,82.80
2019-01-13T01:44:39.864Z,82.70
2019-01-13T01:47:08.322Z,83.20
2019-01-13T01:49:36.458Z,84.00
2019-01-13T01:52:04.837Z,83.70
2019-01-13T01:54:32.952Z,84.00
2019-01-13T01:57:01.137Z,84.10
2019-01-13T01:59:29.247Z,84.20
2019-01-13T02:01:57.530Z,84.80
2019-01-13T02:04:25.638Z,84.40
2019-01-13T02:06:53.853Z,84.50
2019-01-13T02:09:24.960Z,84.50
2019-01-13T02:11:53.101Z,84.70
2019-01-13T02:14:21.165Z,84.80
2019-01-13T02:16:49.302Z,85.70
2019-01-13T02:19:17.482Z,85.40
2019-01-13T02:21:46.260Z,85.40
2019-01-13T02:24:14.325Z,85.60
2019-01-13T02:26:42.457Z,85.60
2019-01-13T02:29:10.526Z,86.40
2019-01-13T02:31:38.663Z,87.00
2019-01-13T02:34:07.251Z,86.90
2019-01-13T02:36:35.389Z,86.90
2019-01-13T02:39:06.183Z,87.10
2019-01-13T02:41:34.506Z,87.20
2019-01-13T02:44:02.685Z,87.80
2019-01-13T02:46:30.817Z,88.00
2019-01-13T02:48:59.341Z,88.10
2019-01-13T02:51:28.396Z,88.30
2019-01-13T02:53:56.939Z,88.70
2019-01-13T02:56:25.074Z,89.00
2019-01-13T02:58:53.150Z,88.80
2019-01-13T03:01:21.277Z,88.80
2019-01-13T03:03:49.689Z,89.00
2019-01-13T03:06:18.282Z,89.40
2019-01-13T03:08:46.357Z,90.10
2019-01-13T03:11:14.471Z,90.10
2019-01-13T03:13:42.662Z,90.30
2019-01-13T03:16:10.968Z,90.30
2019-01-13T03:18:39.850Z,90.40
2019-01-13T03:21:08.146Z,90.70
2019-01-13T03:23:36.669Z,90.70
2019-01-13T03:26:04.948Z,90.80
2019-01-13T03:28:33.138Z,90.80
2019-01-13T03:31:11.327Z,90.80
2019-01-13T03:33:31.340Z,90.70
2019-01-13T03:35:59.733Z,90.90
2019-01-13T03:38:27.920Z,91.00
2019-01-13T03:40:56.010Z,91.10
2019-01-13T03:43:24.260Z,91.00
2019-01-13T03:45:52.434Z,91.10
2019-01-13T03:48:20.729Z,91.10
2019-01-13T03:50:48.925Z,91.30
2019-01-13T03:53:17.009Z,91.50
2019-01-13T03:55:45.193Z,91.40
2019-01-13T03:58:13.876Z,91.60
2019-01-13T04:00:41.969Z,91.60
2019-01-13T04:03:10.248Z,92.00
2019-01-13T04:05:38.457Z,91.70
2019-01-13T04:08:06.738Z,91.90
2019-01-13T04:10:34.857Z,92.00
2019-01-13T04:13:03.044Z,91.70
2019-01-13T04:15:56.332Z,91.90
2019-01-13T04:18:24.426Z,92.10
2019-01-13T04:20:52.980Z,92.10
2019-01-13T04:23:21.464Z,92.50
2019-01-13T04:25:49.585Z,92.90
2019-01-13T04:28:17.764Z,92.80
2019-01-13T04:30:45.977Z,93.00
2019-01-13T04:33:14.110Z,92.70
2019-01-13T04:35:42.486Z,92.80
2019-01-13T04:38:10.761Z,93.10
2019-01-13T04:40:39.012Z,93.20
2019-01-13T04:43:07.705Z,93.20
2019-01-13T04:45:36.041Z,93.20
2019-01-13T04:48:04.204Z,93.40
2019-01-13T04:50:32.487Z,93.40
2019-01-13T04:53:01.166Z,93.40
2019-01-13T04:55:29.477Z,93.50
2019-01-13T04:57:57.564Z,93.80
2019-01-13T05:00:25.893Z,93.60
2019-01-13T05:02:54.079Z,94.00
2019-01-13T05:05:22.244Z,94.30
2019-01-13T05:07:50.787Z,94.80
2019-01-13T05:10:19.796Z,94.70
2019-01-13T05:12:47.935Z,94.60
2019-01-13T05:15:16.705Z,94.50
2019-01-13T05:17:45.085Z,94.40
2019-01-13T05:20:15.157Z,94.30
2019-01-13T05:22:44.272Z,94.30
2019-01-13T05:25:12.551Z,94.40
2019-01-13T05:27:40.682Z,94.50
2019-01-13T05:30:22.505Z,94.60
2019-01-13T05:32:51.121Z,94.90
2019-01-13T05:35:19.732Z,94.90
2019-01-13T05:37:48.000Z,95.10
2019-01-13T05:40:18.064Z,95.60
2019-01-13T05:42:46.820Z,95.50
2019-01-13T05:45:16.457Z,95.60
2019-01-13T05:47:45.022Z,95.40
2019-01-13T05:50:14.740Z,95.70
2019-01-13T05:52:44.111Z,95.80
2019-01-13T05:55:12.406Z,96.40
2019-01-13T05:57:40.625Z,96.20
2019-01-13T06:00:21.121Z,96.90
2019-01-13T06:02:49.345Z,97.00
2019-01-13T06:05:17.619Z,96.80
2019-01-13T06:07:45.849Z,96.80
2019-01-13T06:10:15.292Z,97.30
2019-01-13T06:12:43.681Z,97.10
2019-01-13T06:15:14.190Z,97.20
2019-01-13T06:17:42.437Z,97.20
2019-01-13T06:20:15.885Z,97.10
2019-01-13T06:22:44.012Z,97.40
2019-01-13T06:25:12.310Z,97.60
2019-01-13T06:27:40.641Z,97.80
2019-01-13T06:30:11.936Z,98.20
2019-01-13T06:32:40.060Z,98.00
2019-01-13T06:35:10.169Z,97.90
2019-01-13T06:37:38.401Z,98.80
2019-01-13T06:40:08.690Z,98.80
2019-01-13T06:42:36.917Z,98.40
2019-01-13T06:45:07.532Z,98.40
2019-01-13T06:47:35.669Z,98.20
2019-01-13T06:50:04.764Z,98.30
2019-01-13T06:52:33.242Z,98.40
2019-01-13T06:55:01.331Z,98.90
2019-01-13T06:57:29.495Z,98.80
2019-01-13T06:59:58.014Z,99.20
2019-01-13T07:02:26.237Z,99.10
2019-01-13T07:04:54.324Z,99.30
2019-01-13T07:07:24.666Z,99.60
2019-01-13T07:09:52.752Z,99.60
2019-01-13T07:12:20.892Z,99.90
2019-01-13T07:14:48.976Z,99.90
2019-01-13T07:17:17.122Z,99.90
2019-01-13T07:19:45.358Z,99.90
2019-01-13T07:22:13.582Z,99.90
2019-01-13T07:24:41.660Z,99.90
2019-01-13T07:27:09.921Z,99.90
2019-01-13T07:29:38.400Z,99.90
2019-01-13T07:32:10.783Z,99.90
2019-01-13T07:34:36.909Z,99.90
2019-01-13T07:37:05.147Z,99.90
2019-01-13T07:39:33.323Z,99.90
2019-01-13T07:42:01.450Z,99.90
2019-01-13T07:44:29.646Z,99.90
2019-01-13T07:46:57.850Z,99.90
2019-01-13T07:49:25.932Z,99.90
2019-01-13T07:51:54.016Z,99.90
2019-01-13T07:54:22.149Z,99.90
2019-01-13T07:56:50.319Z,99.90
2019-01-13T07:59:18.446Z,99.90
2019-01-13T08:01:46.593Z,99.90
2019-01-13T08:04:15.309Z,99.90
2019-01-13T08:06:43.504Z,99.90
2019-01-13T08:09:12.040Z,99.90
2019-01-13T08:11:40.120Z,99.90
2019-01-13T08:14:08.361Z,99.90
2019-01-13T08:16:36.973Z,99.90
2019-01-13T08:19:05.319Z,99.90
2019-01-13T08:21:33.490Z,99.90
2019-01-13T08:24:01.708Z,99.90
2019-01-13T08:26:30.189Z,99.90
2019-01-13T08:28:58.327Z,99.90
2019-01-13T08:31:26.389Z,99.90
2019-01-13T08:33:55.290Z,99.90
2019-01-13T08:36:23.636Z,99.90
2019-01-13T08:38:51.929Z,99.90
2019-01-13T08:41:20.289Z,99.90
2019-01-13T08:43:49.606Z,99.90
2019-01-13T08:46:18.528Z,99.90
2019-01-13T08:48:47.428Z,99.90
2019-01-13T08:51:15.955Z,99.90
2019-01-13T08:53:44.347Z,99.90
2019-01-13T08:56:13.097Z,99.90
2019-01-13T08:58:41.616Z,99.90
2019-01-13T09:01:10.342Z,99.90
2019-01-13T09:03:38.725Z,99.90
2019-01-13T09:06:07.148Z,99.90
2019-01-13T09:08:35.904Z,99.90
2019-01-13T09:11:04.332Z,99.90
2019-01-13T09:13:33.040Z,99.90
2019-01-13T09:16:01.676Z,99.90
2019-01-13T09:18:30.144Z,99.90
2019-01-13T09:20:58.963Z,99.90
2019-01-13T09:23:27.293Z,99.90
2019-01-13T09:25:55.708Z,99.90
2019-01-13T09:28:24.261Z,99.90
2019-01-13T09:30:53.200Z,99.90
2019-01-13T09:33:21.845Z,99.90
2019-01-13T09:35:50.148Z,99.90
2019-01-13T09:38:18.540Z,99.90
2019-01-13T09:40:46.672Z,99.90
2019-01-13T09:43:15.042Z,99.90
2019-01-13T09:45:43.156Z,99.90
2019-01-13T09:48:11.420Z,99.90
2019-01-13T09:50:39.816Z,99.90
2019-01-13T09:53:07.880Z,99.90
2019-01-13T09:55:36.084Z,99.90
2019-01-13T09:58:04.352Z,99.90
2019-01-13T10:00:39.182Z,98.70
2019-01-13T10:03:08.564Z,97.20
2019-01-13T10:05:37.422Z,95.60
2019-01-13T10:08:05.724Z,95.00
2019-01-13T10:10:33.946Z,94.80
2019-01-13T10:13:02.012Z,93.60
2019-01-13T10:15:30.223Z,92.80
2019-01-13T10:17:58.386Z,92.20
2019-01-13T10:20:26.488Z,91.50
2019-01-13T10:22:54.768Z,91.30
2019-01-13T10:25:23.624Z,90.60
2019-01-13T10:27:51.803Z,90.30
2019-01-13T10:30:26.933Z,89.00
2019-01-13T10:32:55.184Z,88.70
2019-01-13T10:35:23.949Z,87.70
2019-01-13T10:37:52.909Z,86.70
2019-01-13T10:40:22.694Z,86.10
2019-01-13T10:42:51.077Z,85.80
2019-01-13T10:45:19.372Z,85.60
2019-01-13T10:47:47.445Z,85.40
2019-01-13T10:50:20.132Z,84.90
2019-01-13T10:52:48.350Z,84.60
2019-01-13T10:55:17.837Z,83.30
2019-01-13T10:57:46.057Z,82.80
2019-01-13T11:00:19.795Z,82.30
2019-01-13T11:02:47.921Z,82.20
2019-01-13T11:05:16.289Z,81.60
2019-01-13T11:07:44.713Z,80.70
2019-01-13T11:10:13.829Z,79.50
2019-01-13T11:12:42.052Z,79.10
2019-01-13T11:15:10.594Z,78.60
2019-01-13T11:17:38.911Z,76.20
2019-01-13T11:20:11.035Z,75.90
2019-01-13T11:22:39.257Z,75.90
2019-01-13T11:25:07.683Z,75.50
2019-01-13T11:27:35.793Z,75.20
2019-01-13T11:30:05.152Z,74.50
2019-01-13T11:32:33.271Z,75.00
2019-01-13T11:35:01.385Z,74.50
2019-01-13T11:37:31.273Z,73.90
2019-01-13T11:39:59.723Z,73.40
2019-01-13T11:42:27.849Z,73.50
2019-01-13T11:44:55.912Z,73.60
2019-01-13T11:47:24.612Z,74.00
2019-01-13T11:49:52.728Z,73.50
2019-01-13T11:52:20.893Z,73.20
2019-01-13T11:54:48.957Z,73.10
2019-01-13T11:57:17.063Z,72.70
2019-01-13T11:59:45.129Z,72.40
2019-01-13T12:02:13.345Z,72.10
2019-01-13T12:04:41.405Z,71.50
2019-01-13T12:07:09.521Z,70.90
2019-01-13T12:09:37.588Z,70.50
2019-01-13T12:12:06.159Z,70.30
2019-01-13T12:14:34.234Z,70.80
2019-01-13T12:17:02.357Z,71.00
2019-01-13T12:19:30.424Z,70.90
2019-01-13T12:21:58.533Z,70.80
2019-01-13T12:24:26.596Z,70.90
2019-01-13T12:26:54.758Z,70.80
2019-01-13T12:29:22.964Z,70.70
2019-01-13T12:31:51.034Z,70.90
2019-01-13T12:34:19.253Z,71.30
2019-01-13T12:36:47.609Z,70.70
2019-01-13T12:39:16.001Z,70.70
2019-01-13T12:41:44.065Z,70.70
2019-01-13T12:44:12.290Z,70.90
2019-01-13T12:46:40.562Z,70.90
2019-01-13T12:49:08.668Z,70.90
2019-01-13T12:51:36.833Z,70.70
2019-01-13T12:54:05.661Z,71.10
2019-01-13T12:56:33.849Z,70.90
2019-01-13T12:59:01.961Z,71.10
2019-01-13T13:01:30.030Z,70.80
2019-01-13T13:03:58.148Z,70.90
2019-01-13T13:06:26.313Z,70.70
2019-01-13T13:08:54.430Z,71.00
2019-01-13T13:11:22.509Z,70.80
2019-01-13T13:13:50.730Z,70.40
2019-01-13T13:16:18.808Z,70.60
2019-01-13T13:18:46.921Z,70.70
2019-01-13T13:21:15.090Z,70.90
2019-01-13T13:23:43.232Z,70.30
2019-01-13T13:26:12.241Z,71.20
2019-01-13T13:28:40.512Z,70.70
2019-01-13T13:31:08.614Z,70.10
2019-01-13T13:33:38.936Z,69.90
2019-01-13T13:36:06.821Z,69.50
2019-01-13T13:38:34.997Z,69.30
2019-01-13T13:41:03.252Z,69.40
2019-01-13T13:43:33.537Z,69.80
2019-01-13T13:46:02.328Z,69.80
2019-01-13T13:48:30.495Z,69.60
2019-01-13T13:50:58.820Z,69.30
2019-01-13T13:53:26.976Z,69.40
2019-01-13T13:55:55.195Z,70.30
2019-01-13T13:58:23.456Z,70.00
2019-01-13T14:00:52.673Z,69.30
2019-01-13T14:03:21.193Z,69.10
2019-01-13T14:05:49.417Z,68.70
2019-01-13T14:08:17.477Z,68.90
2019-01-13T14:10:45.600Z,69.00
2019-01-13T14:13:13.652Z,69.20
2019-01-13T14:15:41.979Z,69.30
2019-01-13T14:18:10.251Z,69.30
2019-01-13T14:20:38.465Z,69.20
2019-01-13T14:23:06.732Z,69.40
2019-01-13T14:25:35.509Z,69.60
2019-01-13T14:28:04.196Z,69.90
2019-01-13T14:30:32.422Z,70.30
2019-01-13T14:33:00.677Z,70.30
2019-01-13T14:35:28.905Z,70.30
2019-01-13T14:37:57.120Z,70.50
2019-01-13T14:40:26.332Z,70.60
2019-01-13T14:42:54.494Z,70.70
2019-01-13T14:45:25.054Z,71.10
2019-01-13T14:47:53.748Z,71.10
2019-01-13T14:50:28.472Z,71.30
2019-01-13T14:52:56.545Z,71.50
2019-01-13T14:55:25.412Z,71.70
2019-01-13T14:57:53.598Z,71.70
2019-01-13T15:00:27.429Z,72.00
2019-01-13T15:02:55.618Z,72.00
2019-01-13T15:05:23.834Z,72.10
2019-01-13T15:07:52.000Z,72.70
2019-01-13T15:10:20.946Z,72.30
2019-01-13T15:12:49.020Z,72.60
2019-01-13T15:15:17.340Z,72.70
2019-01-13T15:17:45.405Z,72.90
2019-01-13T15:20:18.760Z,73.10
2019-01-13T15:22:51.503Z,73.20
2019-01-13T15:25:22.453Z,73.50
2019-01-13T15:27:50.721Z,73.50
2019-01-13T15:30:21.879Z,73.60
2019-01-13T15:32:50.056Z,73.60
2019-01-13T15:35:18.577Z,73.90
2019-01-13T15:37:47.140Z,74.10
2019-01-13T15:40:17.029Z,74.30
2019-01-13T15:42:45.845Z,74.50
2019-01-13T15:45:14.836Z,74.50
2019-01-13T15:47:43.409Z,74.80
2019-01-13T15:50:20.307Z,74.80
2019-01-13T15:52:49.052Z,75.20
2019-01-13T15:55:17.487Z,75.20
2019-01-13T15:57:45.860Z,75.20
2019-01-13T16:00:22.097Z,75.30
2019-01-13T16:02:50.416Z,75.40
2019-01-13T16:05:18.592Z,75.50
2019-01-13T16:07:47.304Z,75.50
2019-01-13T16:10:17.308Z,75.60
2019-01-13T16:12:46.092Z,75.80
2019-01-13T16:15:14.552Z,75.90
2019-01-13T16:17:42.820Z,76.00
2019-01-13T16:20:16.837Z,76.20
2019-01-13T16:22:44.994Z,76.20
2019-01-13T16:25:13.213Z,76.30
2019-01-13T16:27:41.372Z,76.40
2019-01-13T16:30:13.177Z,76.40
2019-01-13T16:32:41.244Z,76.50
2019-01-13T16:35:09.569Z,76.60
2019-01-13T16:37:37.689Z,76.80
2019-01-13T16:40:09.248Z,77.00
2019-01-13T16:42:37.317Z,77.30
2019-01-13T16:45:06.932Z,77.50
2019-01-13T16:47:35.565Z,77.50
2019-01-13T16:50:06.272Z,77.80
2019-01-13T16:52:34.436Z,77.80
2019-01-13T16:55:03.561Z,78.10
2019-01-13T16:57:32.576Z,78.10
2019-01-13T17:00:00.680Z,78.10
2019-01-13T17:02:33.089Z,78.10
2019-01-13T17:04:58.665Z,78.30
2019-01-13T17:07:29.565Z,78.70
2019-01-13T17:09:57.796Z,78.90
2019-01-13T17:12:25.931Z,79.10
2019-01-13T17:14:54.053Z,79.10
2019-01-13T17:17:22.241Z,79.40
2019-01-13T17:19:50.329Z,80.20
2019-01-13T17:22:18.459Z,79.50
2019-01-13T17:24:46.537Z,79.90
2019-01-13T17:27:15.053Z,80.00
2019-01-13T17:29:45.716Z,80.40
2019-01-13T17:32:13.842Z,81.40
2019-01-13T17:40:10.484Z,81.00
2019-01-13T17:42:38.725Z,81.40
2019-01-13T17:45:10.039Z,81.20
2019-01-13T17:47:38.295Z,81.20
2019-01-13T17:50:09.302Z,81.50
2019-01-13T17:52:37.456Z,81.70
2019-01-13T17:55:08.335Z,81.90
2019-01-13T17:57:37.195Z,81.90
2019-01-13T18:00:19.818Z,81.90
2019-01-13T18:02:47.944Z,81.80
2019-01-13T18:05:16.270Z,81.80
2019-01-13T18:07:44.485Z,81.90
2019-01-13T18:10:12.879Z,81.80
2019-01-13T18:12:41.014Z,81.60
2019-01-13T18:15:09.310Z,81.60
2019-01-13T18:17:37.650Z,81.50
2019-01-13T18:20:09.804Z,81.30
2019-01-13T18:22:37.968Z,81.10
2019-01-13T18:25:06.285Z,81.00
2019-01-13T18:27:34.429Z,80.90
2019-01-13T18:30:02.921Z,81.00
2019-01-13T18:32:31.175Z,80.90
2019-01-13T18:34:59.257Z,80.70
2019-01-13T18:37:27.386Z,80.60
2019-01-13T18:39:56.028Z,80.50
2019-01-13T18:42:33.242Z,80.30
2019-01-13T18:45:01.682Z,80.10
2019-01-13T18:47:30.137Z,80.30
2019-01-13T18:49:58.247Z,80.10
2019-01-13T18:52:26.410Z,80.10
2019-01-13T18:54:54.964Z,80.00
2019-01-13T18:57:23.129Z,79.90
2019-01-13T18:59:51.418Z,80.00
2019-01-13T19:02:19.600Z,80.00
2019-01-13T19:04:47.715Z,80.30
2019-01-13T19:07:22.353Z,80.50
2019-01-13T19:09:50.459Z,80.70
2019-01-13T19:12:18.718Z,81.00
2019-01-13T19:14:52.148Z,81.10
2019-01-13T19:17:27.369Z,81.80
2019-01-13T19:20:10.722Z,81.50
2019-01-13T19:22:40.488Z,81.70
2019-01-13T19:25:26.118Z,82.70
2019-01-13T19:27:54.293Z,81.90
2019-01-13T19:30:23.825Z,82.10
2019-01-13T19:32:51.961Z,82.00
2019-01-13T19:35:20.061Z,82.00
2019-01-13T19:37:49.216Z,82.20
2019-01-13T19:40:17.714Z,82.20
2019-01-13T19:42:46.269Z,82.20
2019-01-13T19:45:17.039Z,82.40
2019-01-13T19:47:48.890Z,82.30
2019-01-13T19:50:29.810Z,82.40
2019-01-13T19:53:10.736Z,82.20
2019-01-13T19:55:40.525Z,82.20
2019-01-13T19:58:09.381Z,82.30
2019-01-13T20:00:37.712Z,82.20
2019-01-13T20:03:06.818Z,82.10
2019-01-13T20:05:35.217Z,82.20
2019-01-13T20:08:03.678Z,82.20
2019-01-13T20:10:32.306Z,82.20
2019-01-13T20:13:00.587Z,82.40
2019-01-13T20:15:28.742Z,82.40
2019-01-13T20:17:57.510Z,82.40
2019-01-13T20:20:25.757Z,82.60
2019-01-13T20:22:53.948Z,82.70
2019-01-13T20:25:22.096Z,82.60
2019-01-13T20:27:50.297Z,82.80
2019-01-13T20:30:20.584Z,82.90
2019-01-13T20:32:48.945Z,82.90
2019-01-13T20:35:19.278Z,83.00
2019-01-13T20:37:47.289Z,82.90
2019-01-13T20:40:15.737Z,83.00
2019-01-13T20:43:22.842Z,83.00
2019-01-13T20:45:53.236Z,83.20
2019-01-13T20:48:21.600Z,83.20
2019-01-13T20:50:50.250Z,83.40
2019-01-13T20:53:18.481Z,83.40
2019-01-13T20:55:46.578Z,83.20
2019-01-13T20:58:14.962Z,83.10
2019-01-13T21:00:43.227Z,83.00
2019-01-13T21:03:11.494Z,82.90
2019-01-13T21:05:40.230Z,82.70
2019-01-13T21:08:08.627Z,82.80
2019-01-13T21:10:36.873Z,82.60
2019-01-13T21:13:05.365Z,82.80
2019-01-13T21:15:45.279Z,82.90
2019-01-13T21:18:27.525Z,83.00
2019-01-13T21:20:55.694Z,83.10
2019-01-13T21:23:28.221Z,83.10
2019-01-13T21:26:36.262Z,83.10
2019-01-13T21:29:08.218Z,83.20
2019-01-13T21:31:36.428Z,83.10
2019-01-13T21:34:05.227Z,82.90
2019-01-13T21:36:33.565Z,82.60
2019-01-13T21:39:07.991Z,82.60
2019-01-13T21:41:36.860Z,82.50
2019-01-13T21:44:17.897Z,82.30
2019-01-13T21:46:41.964Z,82.30
2019-01-13T21:49:10.165Z,83.10
2019-01-13T21:51:38.252Z,82.30
2019-01-13T21:54:10.917Z,82.10
2019-01-13T21:56:36.601Z,82.00
2019-01-13T21:59:04.920Z,82.00
2019-01-13T22:01:35.515Z,82.20
2019-01-13T22:04:03.237Z,82.40
2019-01-13T22:06:31.531Z,82.50
2019-01-13T22:09:00.321Z,82.70
2019-01-13T22:11:28.574Z,82.80
2019-01-13T22:13:56.956Z,82.90
2019-01-13T22:16:25.097Z,82.90
2019-01-13T22:18:53.182Z,83.00
2019-01-13T22:21:21.417Z,83.10
2019-01-13T22:23:49.496Z,83.20
2019-01-13T22:26:18.180Z,83.40
2019-01-13T22:28:46.431Z,83.40
2019-01-13T22:31:14.572Z,83.60
2019-01-13T22:33:42.652Z,83.60
2019-01-13T22:36:10.937Z,83.60
2019-01-13T22:38:39.137Z,83.40
2019-01-13T22:41:30.392Z,83.30
2019-01-13T22:43:58.473Z,83.50
2019-01-13T22:46:26.615Z,84.70
2019-01-13T22:48:54.693Z,84.10
2019-01-13T22:51:24.381Z,84.00
2019-01-13T22:53:52.536Z,83.80
2019-01-13T22:56:20.803Z,83.70
2019-01-13T22:58:48.895Z,83.60
2019-01-13T23:01:46.603Z,83.60
2019-01-13T23:04:19.003Z,83.90
2019-01-13T23:06:47.330Z,84.00
2019-01-13T23:09:15.752Z,84.00
2019-01-13T23:11:43.990Z,84.20
2019-01-13T23:14:12.187Z,84.30
2019-01-13T23:16:41.433Z,84.40
2019-01-13T23:19:09.643Z,84.50
2019-01-13T23:21:37.973Z,84.70
2019-01-13T23:24:06.314Z,84.70
2019-01-13T23:26:34.571Z,84.70
2019-01-13T23:29:02.859Z,84.50
2019-01-13T23:31:31.046Z,84.40
2019-01-13T23:33:59.185Z,84.30
2019-01-13T23:36:27.618Z,84.20
2019-01-13T23:38:55.856Z,83.90
2019-01-13T23:41:23.992Z,83.80
2019-01-13T23:43:52.381Z,83.70
2019-01-13T23:46:20.625Z,83.60
2019-01-13T23:48:48.776Z,83.60
2019-01-13T23:51:17.065Z,83.70
2019-01-13T23:53:45.301Z,83.70
2019-01-13T23:56:13.484Z,83.60
2019-01-13T23:58:41.725Z,83.60
